sensor_id;sensor_type;location;lat;lon;timestamp;temperature;humidity
14095;DHT22;18096;48.142;16.290;2023-11-21T00:02:20;9.40;99.90
14095;DHT22;18096;48.142;16.290;2023-11-21T00:04:47;9.40;99.90
14095;DHT22;18096;48.142;16.290;2023-11-21T00:07:13;9.40;99.90
14095;DHT22;18096;48.142;16.290;2023-11-21T00:09:40;9.40;99.90
14095;DHT22;18096;48.142;16.290;2023-11-21T00:12:07;9.40;99.90
14095;DHT22;18096;48.142;16.290;2023-11-21T00:14:38;9.50;99.90
14095;DHT22;18096;48.142;16.290;2023-11-21T00:17:04;9.50;99.90
14095;DHT22;18096;48.142;16.290;2023-11-21T00:19:31;9.50;99.90
14095;DHT22;18096;48.142;16.290;2023-11-21T00:21:56;9.50;99.90
14095;DHT22;18096;48.142;16.290;2023-11-21T00:24:24;9.40;99.90
14095;DHT22;18096;48.142;16.290;2023-11-21T00:26:50;9.40;99.90
14095;DHT22;18096;48.142;16.290;2023-11-21T00:29:16;9.40;99.90
14095;DHT22;18096;48.142;16.290;2023-11-21T00:31:44;9.40;99.90
14095;DHT22;18096;48.142;16.290;2023-11-21T00:34:11;9.30;99.90
14095;DHT22;18096;48.142;16.290;2023-11-21T00:36:37;9.30;99.90
14095;DHT22;18096;48.142;16.290;2023-11-21T00:39:03;9.30;99.90
14095;DHT22;18096;48.142;16.290;2023-11-21T00:41:31;9.30;99.90
14095;DHT22;18096;48.142;16.290;2023-11-21T00:43:57;9.30;99.90
14095;DHT22;18096;48.142;16.290;2023-11-21T00:46:22;9.30;99.90
14095;DHT22;18096;48.142;16.290;2023-11-21T00:48:49;9.30;99.90
14095;DHT22;18096;48.142;16.290;2023-11-21T00:51:15;9.20;99.90
14095;DHT22;18096;48.142;16.290;2023-11-21T00:53:41;9.30;99.90
14095;DHT22;18096;48.142;16.290;2023-11-21T00:56:06;9.20;99.90
14095;DHT22;18096;48.142;16.290;2023-11-21T00:58:34;9.20;99.90
14095;DHT22;18096;48.142;16.290;2023-11-21T01:00:59;9.30;99.90
14095;DHT22;18096;48.142;16.290;2023-11-21T01:03:25;9.30;99.90
14095;DHT22;18096;48.142;16.290;2023-11-21T01:05:50;9.30;99.90
14095;DHT22;18096;48.142;16.290;2023-11-21T01:08:16;9.20;99.90
14095;DHT22;18096;48.142;16.290;2023-11-21T01:10:42;9.30;99.90
14095;DHT22;18096;48.142;16.290;2023-11-21T01:13:07;9.20;99.90
14095;DHT22;18096;48.142;16.290;2023-11-21T01:15:34;9.20;99.90
14095;DHT22;18096;48.142;16.290;2023-11-21T01:17:59;9.20;99.90
14095;DHT22;18096;48.142;16.290;2023-11-21T01:20:25;9.10;99.90
14095;DHT22;18096;48.142;16.290;2023-11-21T01:22:51;9.10;99.90
14095;DHT22;18096;48.142;16.290;2023-11-21T01:25:19;9.10;99.90
14095;DHT22;18096;48.142;16.290;2023-11-21T01:27:44;9.00;99.90
14095;DHT22;18096;48.142;16.290;2023-11-21T01:30:10;9.00;99.90
14095;DHT22;18096;48.142;16.290;2023-11-21T01:32:36;9.00;99.90
14095;DHT22;18096;48.142;16.290;2023-11-21T01:35:02;9.00;99.90
14095;DHT22;18096;48.142;16.290;2023-11-21T01:37:30;8.90;99.90
14095;DHT22;18096;48.142;16.290;2023-11-21T01:39:56;8.90;99.90
14095;DHT22;18096;48.142;16.290;2023-11-21T01:42:22;8.90;99.90
14095;DHT22;18096;48.142;16.290;2023-11-21T01:44:47;8.90;99.90
14095;DHT22;18096;48.142;16.290;2023-11-21T01:47:14;8.90;99.90
14095;DHT22;18096;48.142;16.290;2023-11-21T01:49:43;8.90;99.90
14095;DHT22;18096;48.142;16.290;2023-11-21T01:52:10;8.90;99.90
14095;DHT22;18096;48.142;16.290;2023-11-21T01:54:36;8.90;99.90
14095;DHT22;18096;48.142;16.290;2023-11-21T01:57:04;8.90;99.90
14095;DHT22;18096;48.142;16.290;2023-11-21T01:59:36;8.90;99.90
14095;DHT22;18096;48.142;16.290;2023-11-21T02:02:06;8.90;99.90
14095;DHT22;18096;48.142;16.290;2023-11-21T02:04:35;8.90;99.90
14095;DHT22;18096;48.142;16.290;2023-11-21T02:07:04;8.80;99.90
14095;DHT22;18096;48.142;16.290;2023-11-21T02:09:33;8.80;99.90
14095;DHT22;18096;48.142;16.290;2023-11-21T02:12:00;8.70;99.90
14095;DHT22;18096;48.142;16.290;2023-11-21T02:14:26;8.70;99.90
14095;DHT22;18096;48.142;16.290;2023-11-21T02:16:54;8.70;99.90
14095;DHT22;18096;48.142;16.290;2023-11-21T02:19:21;8.60;99.90
14095;DHT22;18096;48.142;16.290;2023-11-21T02:21:50;8.60;99.90
14095;DHT22;18096;48.142;16.290;2023-11-21T02:24:19;8.60;99.90
14095;DHT22;18096;48.142;16.290;2023-11-21T02:26:45;8.50;99.90
14095;DHT22;18096;48.142;16.290;2023-11-21T02:29:11;8.50;99.90
14095;DHT22;18096;48.142;16.290;2023-11-21T02:31:38;8.40;99.90
14095;DHT22;18096;48.142;16.290;2023-11-21T02:34:16;8.40;99.90
14095;DHT22;18096;48.142;16.290;2023-11-21T02:36:45;8.30;99.90
14095;DHT22;18096;48.142;16.290;2023-11-21T02:39:11;8.30;99.90
14095;DHT22;18096;48.142;16.290;2023-11-21T02:41:37;8.20;99.90
14095;DHT22;18096;48.142;16.290;2023-11-21T02:44:05;8.20;99.90
14095;DHT22;18096;48.142;16.290;2023-11-21T02:46:32;8.10;99.90
14095;DHT22;18096;48.142;16.290;2023-11-21T02:49:05;8.10;99.90
14095;DHT22;18096;48.142;16.290;2023-11-21T02:51:35;8.20;99.90
14095;DHT22;18096;48.142;16.290;2023-11-21T02:54:02;8.20;99.90
14095;DHT22;18096;48.142;16.290;2023-11-21T02:56:30;8.30;99.90
14095;DHT22;18096;48.142;16.290;2023-11-21T02:58:56;8.30;99.90
14095;DHT22;18096;48.142;16.290;2023-11-21T03:01:22;8.40;99.90
14095;DHT22;18096;48.142;16.290;2023-11-21T03:03:49;8.50;99.90
14095;DHT22;18096;48.142;16.290;2023-11-21T03:06:17;8.60;99.90
14095;DHT22;18096;48.142;16.290;2023-11-21T03:08:43;8.70;99.90
14095;DHT22;18096;48.142;16.290;2023-11-21T03:11:09;8.70;99.90
14095;DHT22;18096;48.142;16.290;2023-11-21T03:13:34;8.80;99.90
14095;DHT22;18096;48.142;16.290;2023-11-21T03:16:00;8.80;99.90
14095;DHT22;18096;48.142;16.290;2023-11-21T03:18:25;8.80;99.90
14095;DHT22;18096;48.142;16.290;2023-11-21T03:20:54;8.90;99.90
14095;DHT22;18096;48.142;16.290;2023-11-21T03:23:20;9.00;99.90
14095;DHT22;18096;48.142;16.290;2023-11-21T03:25:46;9.00;99.90
14095;DHT22;18096;48.142;16.290;2023-11-21T03:28:11;9.00;99.90
14095;DHT22;18096;48.142;16.290;2023-11-21T03:30:37;9.00;99.90
14095;DHT22;18096;48.142;16.290;2023-11-21T03:33:02;9.00;99.90
14095;DHT22;18096;48.142;16.290;2023-11-21T03:35:28;9.00;99.90
14095;DHT22;18096;48.142;16.290;2023-11-21T03:37:54;9.00;99.90
14095;DHT22;18096;48.142;16.290;2023-11-21T03:40:19;9.00;99.90
14095;DHT22;18096;48.142;16.290;2023-11-21T03:42:46;9.00;99.90
14095;DHT22;18096;48.142;16.290;2023-11-21T03:45:12;9.00;99.90
14095;DHT22;18096;48.142;16.290;2023-11-21T03:47:38;8.90;99.90
14095;DHT22;18096;48.142;16.290;2023-11-21T03:50:04;8.80;99.90
14095;DHT22;18096;48.142;16.290;2023-11-21T03:52:30;8.80;99.90
14095;DHT22;18096;48.142;16.290;2023-11-21T03:54:56;8.70;99.90
14095;DHT22;18096;48.142;16.290;2023-11-21T03:57:22;8.60;99.90
14095;DHT22;18096;48.142;16.290;2023-11-21T03:59:47;8.50;99.90
14095;DHT22;18096;48.142;16.290;2023-11-21T04:02:13;8.40;99.90
14095;DHT22;18096;48.142;16.290;2023-11-21T04:04:39;8.30;99.90
14095;DHT22;18096;48.142;16.290;2023-11-21T04:07:05;8.20;99.90
14095;DHT22;18096;48.142;16.290;2023-11-21T04:09:30;8.20;99.90
14095;DHT22;18096;48.142;16.290;2023-11-21T04:11:56;8.10;99.90
14095;DHT22;18096;48.142;16.290;2023-11-21T04:14:22;8.00;99.90
14095;DHT22;18096;48.142;16.290;2023-11-21T04:16:48;8.00;99.90
14095;DHT22;18096;48.142;16.290;2023-11-21T04:19:14;7.90;99.90
14095;DHT22;18096;48.142;16.290;2023-11-21T04:21:41;7.90;99.90
14095;DHT22;18096;48.142;16.290;2023-11-21T04:24:07;7.80;99.90
14095;DHT22;18096;48.142;16.290;2023-11-21T04:26:33;7.80;99.90
14095;DHT22;18096;48.142;16.290;2023-11-21T04:28:58;7.70;99.90
14095;DHT22;18096;48.142;16.290;2023-11-21T04:31:24;7.70;99.90
14095;DHT22;18096;48.142;16.290;2023-11-21T04:33:50;7.60;99.90
14095;DHT22;18096;48.142;16.290;2023-11-21T04:36:15;7.60;99.90
14095;DHT22;18096;48.142;16.290;2023-11-21T04:38:41;7.60;99.90
14095;DHT22;18096;48.142;16.290;2023-11-21T04:41:07;7.50;99.90
14095;DHT22;18096;48.142;16.290;2023-11-21T04:43:33;7.50;99.90
14095;DHT22;18096;48.142;16.290;2023-11-21T04:45:58;7.50;99.90
14095;DHT22;18096;48.142;16.290;2023-11-21T04:48:24;7.60;99.90
14095;DHT22;18096;48.142;16.290;2023-11-21T04:50:50;7.70;99.90
14095;DHT22;18096;48.142;16.290;2023-11-21T04:53:17;7.70;99.90
14095;DHT22;18096;48.142;16.290;2023-11-21T04:55:43;7.80;99.90
14095;DHT22;18096;48.142;16.290;2023-11-21T04:58:09;7.90;99.90
14095;DHT22;18096;48.142;16.290;2023-11-21T05:00:35;7.90;99.90
14095;DHT22;18096;48.142;16.290;2023-11-21T05:03:02;8.00;99.90
14095;DHT22;18096;48.142;16.290;2023-11-21T05:05:29;8.10;99.90
14095;DHT22;18096;48.142;16.290;2023-11-21T05:07:55;8.10;99.90
14095;DHT22;18096;48.142;16.290;2023-11-21T05:10:21;8.10;99.90
14095;DHT22;18096;48.142;16.290;2023-11-21T05:12:48;8.20;99.90
14095;DHT22;18096;48.142;16.290;2023-11-21T05:15:15;8.20;99.90
14095;DHT22;18096;48.142;16.290;2023-11-21T05:17:43;8.20;99.90
14095;DHT22;18096;48.142;16.290;2023-11-21T05:20:13;8.30;99.90
14095;DHT22;18096;48.142;16.290;2023-11-21T05:22:40;8.30;99.90
14095;DHT22;18096;48.142;16.290;2023-11-21T05:25:06;8.40;99.90
14095;DHT22;18096;48.142;16.290;2023-11-21T05:27:33;8.50;99.90
14095;DHT22;18096;48.142;16.290;2023-11-21T05:30:03;8.50;99.90
14095;DHT22;18096;48.142;16.290;2023-11-21T05:32:31;8.60;99.90
14095;DHT22;18096;48.142;16.290;2023-11-21T05:34:56;8.60;99.90
14095;DHT22;18096;48.142;16.290;2023-11-21T05:37:22;8.60;99.90
14095;DHT22;18096;48.142;16.290;2023-11-21T05:39:49;8.70;99.90
14095;DHT22;18096;48.142;16.290;2023-11-21T05:42:15;8.70;99.90
14095;DHT22;18096;48.142;16.290;2023-11-21T05:44:43;8.70;99.90
14095;DHT22;18096;48.142;16.290;2023-11-21T05:47:09;8.60;99.90
14095;DHT22;18096;48.142;16.290;2023-11-21T05:49:35;8.60;99.90
14095;DHT22;18096;48.142;16.290;2023-11-21T05:52:01;8.60;99.90
14095;DHT22;18096;48.142;16.290;2023-11-21T05:54:27;8.50;99.90
14095;DHT22;18096;48.142;16.290;2023-11-21T05:56:52;8.50;99.90
14095;DHT22;18096;48.142;16.290;2023-11-21T05:59:18;8.40;99.90
14095;DHT22;18096;48.142;16.290;2023-11-21T06:01:43;8.40;99.90
14095;DHT22;18096;48.142;16.290;2023-11-21T06:04:11;8.30;99.90
14095;DHT22;18096;48.142;16.290;2023-11-21T06:06:38;8.30;99.90
14095;DHT22;18096;48.142;16.290;2023-11-21T06:09:04;8.30;99.90
14095;DHT22;18096;48.142;16.290;2023-11-21T06:11:31;8.20;99.90
14095;DHT22;18096;48.142;16.290;2023-11-21T06:13:57;8.20;99.90
14095;DHT22;18096;48.142;16.290;2023-11-21T06:16:23;8.20;99.90
14095;DHT22;18096;48.142;16.290;2023-11-21T06:18:49;8.10;99.90
14095;DHT22;18096;48.142;16.290;2023-11-21T06:21:15;8.00;99.90
14095;DHT22;18096;48.142;16.290;2023-11-21T06:23:42;8.00;99.90
14095;DHT22;18096;48.142;16.290;2023-11-21T06:26:08;7.90;99.90
14095;DHT22;18096;48.142;16.290;2023-11-21T06:28:34;7.90;99.90
14095;DHT22;18096;48.142;16.290;2023-11-21T06:31:01;7.90;99.90
14095;DHT22;18096;48.142;16.290;2023-11-21T06:33:31;7.80;99.90
14095;DHT22;18096;48.142;16.290;2023-11-21T06:35:57;7.80;99.90
14095;DHT22;18096;48.142;16.290;2023-11-21T06:38:22;7.90;99.90
14095;DHT22;18096;48.142;16.290;2023-11-21T06:40:48;7.90;99.90
14095;DHT22;18096;48.142;16.290;2023-11-21T06:43:14;7.80;99.90
14095;DHT22;18096;48.142;16.290;2023-11-21T06:45:40;7.90;99.90
14095;DHT22;18096;48.142;16.290;2023-11-21T06:48:06;7.90;99.90
14095;DHT22;18096;48.142;16.290;2023-11-21T06:50:32;7.80;99.90
14095;DHT22;18096;48.142;16.290;2023-11-21T06:52:57;7.90;99.90
14095;DHT22;18096;48.142;16.290;2023-11-21T06:55:23;7.90;99.90
14095;DHT22;18096;48.142;16.290;2023-11-21T06:57:49;7.90;99.90
14095;DHT22;18096;48.142;16.290;2023-11-21T07:00:16;7.90;99.90
14095;DHT22;18096;48.142;16.290;2023-11-21T07:02:43;8.00;99.90
14095;DHT22;18096;48.142;16.290;2023-11-21T07:05:09;8.00;99.90
14095;DHT22;18096;48.142;16.290;2023-11-21T07:07:35;8.00;99.90
14095;DHT22;18096;48.142;16.290;2023-11-21T07:10:01;8.00;99.90
14095;DHT22;18096;48.142;16.290;2023-11-21T07:12:29;8.00;99.90
14095;DHT22;18096;48.142;16.290;2023-11-21T07:14:55;8.00;99.90
14095;DHT22;18096;48.142;16.290;2023-11-21T07:17:21;8.10;99.90
14095;DHT22;18096;48.142;16.290;2023-11-21T07:19:48;8.10;99.90
14095;DHT22;18096;48.142;16.290;2023-11-21T07:22:17;8.20;99.90
14095;DHT22;18096;48.142;16.290;2023-11-21T07:24:49;8.20;99.90
14095;DHT22;18096;48.142;16.290;2023-11-21T07:27:16;8.20;99.90
14095;DHT22;18096;48.142;16.290;2023-11-21T07:29:42;8.30;99.90
14095;DHT22;18096;48.142;16.290;2023-11-21T07:32:07;8.30;99.90
14095;DHT22;18096;48.142;16.290;2023-11-21T07:34:35;8.30;99.90
14095;DHT22;18096;48.142;16.290;2023-11-21T07:37:01;8.40;99.90
14095;DHT22;18096;48.142;16.290;2023-11-21T07:39:27;8.40;99.90
14095;DHT22;18096;48.142;16.290;2023-11-21T07:41:52;8.50;99.90
14095;DHT22;18096;48.142;16.290;2023-11-21T07:44:18;8.50;99.90
14095;DHT22;18096;48.142;16.290;2023-11-21T07:46:45;8.60;99.90
14095;DHT22;18096;48.142;16.290;2023-11-21T07:49:11;8.70;99.90
14095;DHT22;18096;48.142;16.290;2023-11-21T07:51:40;8.80;99.90
14095;DHT22;18096;48.142;16.290;2023-11-21T07:54:05;8.90;99.90
14095;DHT22;18096;48.142;16.290;2023-11-21T07:56:31;9.00;99.90
14095;DHT22;18096;48.142;16.290;2023-11-21T07:58:57;9.10;99.90
14095;DHT22;18096;48.142;16.290;2023-11-21T08:01:23;9.30;99.90
14095;DHT22;18096;48.142;16.290;2023-11-21T08:03:49;9.40;99.90
14095;DHT22;18096;48.142;16.290;2023-11-21T08:06:18;9.50;99.90
14095;DHT22;18096;48.142;16.290;2023-11-21T08:08:43;9.60;99.90
14095;DHT22;18096;48.142;16.290;2023-11-21T08:11:09;9.70;99.90
14095;DHT22;18096;48.142;16.290;2023-11-21T08:13:36;9.80;99.90
14095;DHT22;18096;48.142;16.290;2023-11-21T08:16:02;9.90;99.90
14095;DHT22;18096;48.142;16.290;2023-11-21T08:18:29;10.00;99.90
14095;DHT22;18096;48.142;16.290;2023-11-21T08:20:55;10.00;99.90
14095;DHT22;18096;48.142;16.290;2023-11-21T08:23:22;10.10;99.90
14095;DHT22;18096;48.142;16.290;2023-11-21T08:25:51;10.10;99.90
14095;DHT22;18096;48.142;16.290;2023-11-21T08:28:17;10.20;99.90
14095;DHT22;18096;48.142;16.290;2023-11-21T08:30:43;10.20;99.90
14095;DHT22;18096;48.142;16.290;2023-11-21T08:33:09;10.30;99.90
14095;DHT22;18096;48.142;16.290;2023-11-21T08:35:37;10.30;99.90
14095;DHT22;18096;48.142;16.290;2023-11-21T08:38:03;10.30;99.90
14095;DHT22;18096;48.142;16.290;2023-11-21T08:40:29;10.30;99.90
14095;DHT22;18096;48.142;16.290;2023-11-21T08:42:55;10.40;99.90
14095;DHT22;18096;48.142;16.290;2023-11-21T08:45:21;10.40;99.90
14095;DHT22;18096;48.142;16.290;2023-11-21T08:47:47;10.40;99.90
14095;DHT22;18096;48.142;16.290;2023-11-21T08:50:14;10.40;99.90
14095;DHT22;18096;48.142;16.290;2023-11-21T08:52:40;10.40;99.90
14095;DHT22;18096;48.142;16.290;2023-11-21T08:55:07;10.50;99.90
14095;DHT22;18096;48.142;16.290;2023-11-21T08:57:38;10.50;99.90
14095;DHT22;18096;48.142;16.290;2023-11-21T09:00:05;10.60;99.90
14095;DHT22;18096;48.142;16.290;2023-11-21T09:02:38;10.60;99.90
14095;DHT22;18096;48.142;16.290;2023-11-21T09:05:05;10.70;99.90
14095;DHT22;18096;48.142;16.290;2023-11-21T09:07:31;10.70;99.90
14095;DHT22;18096;48.142;16.290;2023-11-21T09:09:56;10.80;99.90
14095;DHT22;18096;48.142;16.290;2023-11-21T09:12:22;10.80;99.90
14095;DHT22;18096;48.142;16.290;2023-11-21T09:14:50;10.90;99.90
14095;DHT22;18096;48.142;16.290;2023-11-21T09:17:16;10.90;99.90
14095;DHT22;18096;48.142;16.290;2023-11-21T09:19:42;11.00;99.90
14095;DHT22;18096;48.142;16.290;2023-11-21T09:22:10;11.00;99.90
14095;DHT22;18096;48.142;16.290;2023-11-21T09:24:36;11.00;99.90
14095;DHT22;18096;48.142;16.290;2023-11-21T09:27:03;11.00;99.90
14095;DHT22;18096;48.142;16.290;2023-11-21T09:29:29;11.10;99.90
14095;DHT22;18096;48.142;16.290;2023-11-21T09:31:55;11.10;99.90
14095;DHT22;18096;48.142;16.290;2023-11-21T09:34:21;11.10;99.90
14095;DHT22;18096;48.142;16.290;2023-11-21T09:36:47;11.10;99.90
14095;DHT22;18096;48.142;16.290;2023-11-21T09:39:14;11.00;99.90
14095;DHT22;18096;48.142;16.290;2023-11-21T09:44:13;11.10;99.90
14095;DHT22;18096;48.142;16.290;2023-11-21T09:46:43;11.10;99.90
14095;DHT22;18096;48.142;16.290;2023-11-21T09:49:11;11.10;99.90
14095;DHT22;18096;48.142;16.290;2023-11-21T09:51:42;11.10;99.90
14095;DHT22;18096;48.142;16.290;2023-11-21T09:54:10;11.20;99.90
14095;DHT22;18096;48.142;16.290;2023-11-21T09:56:38;11.20;99.90
14095;DHT22;18096;48.142;16.290;2023-11-21T09:59:04;11.20;99.90
14095;DHT22;18096;48.142;16.290;2023-11-21T10:01:33;11.20;99.90
14095;DHT22;18096;48.142;16.290;2023-11-21T10:04:01;11.20;99.90
14095;DHT22;18096;48.142;16.290;2023-11-21T10:06:26;11.20;99.90
14095;DHT22;18096;48.142;16.290;2023-11-21T10:08:54;11.20;99.90
14095;DHT22;18096;48.142;16.290;2023-11-21T10:11:24;11.20;99.90
14095;DHT22;18096;48.142;16.290;2023-11-21T10:13:53;11.20;99.90
14095;DHT22;18096;48.142;16.290;2023-11-21T10:16:19;11.20;99.90
14095;DHT22;18096;48.142;16.290;2023-11-21T10:18:52;11.20;99.90
14095;DHT22;18096;48.142;16.290;2023-11-21T10:21:21;11.20;99.90
14095;DHT22;18096;48.142;16.290;2023-11-21T10:23:47;11.20;99.90
14095;DHT22;18096;48.142;16.290;2023-11-21T10:26:14;11.20;99.90
14095;DHT22;18096;48.142;16.290;2023-11-21T10:28:57;11.20;99.90
14095;DHT22;18096;48.142;16.290;2023-11-21T10:31:23;11.20;99.90
14095;DHT22;18096;48.142;16.290;2023-11-21T10:33:52;11.20;99.90
14095;DHT22;18096;48.142;16.290;2023-11-21T10:36:27;11.30;99.90
14095;DHT22;18096;48.142;16.290;2023-11-21T10:38:53;11.30;99.90
14095;DHT22;18096;48.142;16.290;2023-11-21T10:41:22;11.30;99.90
14095;DHT22;18096;48.142;16.290;2023-11-21T10:43:48;11.30;99.90
14095;DHT22;18096;48.142;16.290;2023-11-21T10:46:14;11.30;99.90
14095;DHT22;18096;48.142;16.290;2023-11-21T10:48:44;11.30;99.90
14095;DHT22;18096;48.142;16.290;2023-11-21T10:51:10;11.40;99.90
14095;DHT22;18096;48.142;16.290;2023-11-21T10:53:39;11.40;99.90
14095;DHT22;18096;48.142;16.290;2023-11-21T10:56:08;11.40;99.90
14095;DHT22;18096;48.142;16.290;2023-11-21T10:58:43;11.40;99.90
14095;DHT22;18096;48.142;16.290;2023-11-21T11:01:09;11.40;99.90
14095;DHT22;18096;48.142;16.290;2023-11-21T11:03:39;11.40;99.90
14095;DHT22;18096;48.142;16.290;2023-11-21T11:06:07;11.40;99.90
14095;DHT22;18096;48.142;16.290;2023-11-21T11:08:37;11.50;99.90
14095;DHT22;18096;48.142;16.290;2023-11-21T11:11:07;11.40;99.90
14095;DHT22;18096;48.142;16.290;2023-11-21T11:13:35;11.50;99.90
14095;DHT22;18096;48.142;16.290;2023-11-21T11:16:02;11.50;99.90
14095;DHT22;18096;48.142;16.290;2023-11-21T11:18:28;11.50;99.90
14095;DHT22;18096;48.142;16.290;2023-11-21T11:21:13;11.50;99.90
14095;DHT22;18096;48.142;16.290;2023-11-21T11:34:56;11.50;99.90
14095;DHT22;18096;48.142;16.290;2023-11-21T11:37:25;11.60;99.90
14095;DHT22;18096;48.142;16.290;2023-11-21T11:39:51;11.50;99.90
14095;DHT22;18096;48.142;16.290;2023-11-21T11:42:19;11.50;99.90
14095;DHT22;18096;48.142;16.290;2023-11-21T11:44:49;11.50;99.90
14095;DHT22;18096;48.142;16.290;2023-11-21T11:50:07;11.50;99.90
14095;DHT22;18096;48.142;16.290;2023-11-21T11:52:46;11.50;99.90
14095;DHT22;18096;48.142;16.290;2023-11-21T11:55:16;11.50;99.90
14095;DHT22;18096;48.142;16.290;2023-11-21T11:57:48;11.50;99.90
14095;DHT22;18096;48.142;16.290;2023-11-21T12:00:22;11.50;99.90
14095;DHT22;18096;48.142;16.290;2023-11-21T12:03:09;11.50;99.90
14095;DHT22;18096;48.142;16.290;2023-11-21T12:05:35;11.50;99.90
14095;DHT22;18096;48.142;16.290;2023-11-21T12:08:05;11.50;99.90
14095;DHT22;18096;48.142;16.290;2023-11-21T12:10:34;11.50;99.90
14095;DHT22;18096;48.142;16.290;2023-11-21T12:15:31;11.50;99.90
14095;DHT22;18096;48.142;16.290;2023-11-21T12:17:57;11.50;99.90
14095;DHT22;18096;48.142;16.290;2023-11-21T12:20:24;11.50;99.90
14095;DHT22;18096;48.142;16.290;2023-11-21T12:22:50;11.50;99.90
14095;DHT22;18096;48.142;16.290;2023-11-21T12:25:20;11.40;99.90
14095;DHT22;18096;48.142;16.290;2023-11-21T12:27:48;11.40;99.90
14095;DHT22;18096;48.142;16.290;2023-11-21T12:30:16;11.40;99.90
14095;DHT22;18096;48.142;16.290;2023-11-21T12:32:43;11.40;99.90
14095;DHT22;18096;48.142;16.290;2023-11-21T12:35:10;11.30;99.90
14095;DHT22;18096;48.142;16.290;2023-11-21T12:37:40;11.30;99.90
14095;DHT22;18096;48.142;16.290;2023-11-21T12:40:10;11.30;99.90
14095;DHT22;18096;48.142;16.290;2023-11-21T12:42:41;11.30;99.90
14095;DHT22;18096;48.142;16.290;2023-11-21T12:45:27;11.30;99.90
14095;DHT22;18096;48.142;16.290;2023-11-21T12:48:04;11.20;99.90
14095;DHT22;18096;48.142;16.290;2023-11-21T12:50:34;11.20;99.90
14095;DHT22;18096;48.142;16.290;2023-11-21T12:53:03;11.20;99.90
14095;DHT22;18096;48.142;16.290;2023-11-21T12:55:32;11.20;99.90
14095;DHT22;18096;48.142;16.290;2023-11-21T12:57:59;11.20;99.90
14095;DHT22;18096;48.142;16.290;2023-11-21T13:00:33;11.20;99.90
14095;DHT22;18096;48.142;16.290;2023-11-21T13:03:03;11.20;99.90
14095;DHT22;18096;48.142;16.290;2023-11-21T13:05:34;11.20;99.90
14095;DHT22;18096;48.142;16.290;2023-11-21T13:08:04;11.20;99.90
14095;DHT22;18096;48.142;16.290;2023-11-21T13:10:33;11.20;99.90
14095;DHT22;18096;48.142;16.290;2023-11-21T13:13:06;11.20;99.90
14095;DHT22;18096;48.142;16.290;2023-11-21T13:15:39;11.20;99.90
14095;DHT22;18096;48.142;16.290;2023-11-21T13:18:06;11.10;99.90
14095;DHT22;18096;48.142;16.290;2023-11-21T13:20:33;11.10;99.90
14095;DHT22;18096;48.142;16.290;2023-11-21T13:22:59;11.10;99.90
14095;DHT22;18096;48.142;16.290;2023-11-21T13:25:30;11.10;99.90
14095;DHT22;18096;48.142;16.290;2023-11-21T13:27:57;11.10;99.90
14095;DHT22;18096;48.142;16.290;2023-11-21T13:30:24;11.10;99.90
14095;DHT22;18096;48.142;16.290;2023-11-21T13:33:02;11.10;99.90
14095;DHT22;18096;48.142;16.290;2023-11-21T13:35:28;11.10;99.90
14095;DHT22;18096;48.142;16.290;2023-11-21T13:38:18;11.10;99.90
14095;DHT22;18096;48.142;16.290;2023-11-21T13:40:53;11.00;99.90
14095;DHT22;18096;48.142;16.290;2023-11-21T13:43:23;11.00;99.90
14095;DHT22;18096;48.142;16.290;2023-11-21T13:45:52;11.00;99.90
14095;DHT22;18096;48.142;16.290;2023-11-21T13:48:25;11.00;99.90
14095;DHT22;18096;48.142;16.290;2023-11-21T13:50:57;10.90;99.90
14095;DHT22;18096;48.142;16.290;2023-11-21T13:53:36;10.90;99.90
14095;DHT22;18096;48.142;16.290;2023-11-21T13:56:04;10.90;99.90
14095;DHT22;18096;48.142;16.290;2023-11-21T13:58:30;10.90;99.90
14095;DHT22;18096;48.142;16.290;2023-11-21T14:01:14;10.90;99.90
14095;DHT22;18096;48.142;16.290;2023-11-21T14:03:49;10.90;99.90
14095;DHT22;18096;48.142;16.290;2023-11-21T14:06:22;10.90;99.90
14095;DHT22;18096;48.142;16.290;2023-11-21T14:08:52;10.90;99.90
14095;DHT22;18096;48.142;16.290;2023-11-21T14:11:22;10.90;99.90
14095;DHT22;18096;48.142;16.290;2023-11-21T14:13:48;10.90;99.90
14095;DHT22;18096;48.142;16.290;2023-11-21T14:16:14;10.80;99.90
14095;DHT22;18096;48.142;16.290;2023-11-21T14:18:42;10.80;99.90
14095;DHT22;18096;48.142;16.290;2023-11-21T14:21:21;10.80;99.90
14095;DHT22;18096;48.142;16.290;2023-11-21T14:23:47;10.80;99.90
14095;DHT22;18096;48.142;16.290;2023-11-21T14:26:14;10.70;99.90
14095;DHT22;18096;48.142;16.290;2023-11-21T14:28:41;10.70;99.90
14095;DHT22;18096;48.142;16.290;2023-11-21T14:31:08;10.70;99.90
14095;DHT22;18096;48.142;16.290;2023-11-21T14:33:39;10.70;99.90
14095;DHT22;18096;48.142;16.290;2023-11-21T14:36:05;10.70;99.90
14095;DHT22;18096;48.142;16.290;2023-11-21T14:38:33;10.70;99.90
14095;DHT22;18096;48.142;16.290;2023-11-21T14:40:59;10.70;99.90
14095;DHT22;18096;48.142;16.290;2023-11-21T14:43:24;10.60;99.90
14095;DHT22;18096;48.142;16.290;2023-11-21T14:45:51;10.60;99.90
14095;DHT22;18096;48.142;16.290;2023-11-21T14:48:17;10.50;99.90
14095;DHT22;18096;48.142;16.290;2023-11-21T14:50:53;10.50;99.90
14095;DHT22;18096;48.142;16.290;2023-11-21T14:53:39;10.50;99.90
14095;DHT22;18096;48.142;16.290;2023-11-21T14:56:23;10.40;99.90
14095;DHT22;18096;48.142;16.290;2023-11-21T14:58:53;10.40;99.90
14095;DHT22;18096;48.142;16.290;2023-11-21T15:01:20;10.40;99.90
14095;DHT22;18096;48.142;16.290;2023-11-21T15:03:59;10.30;99.90
14095;DHT22;18096;48.142;16.290;2023-11-21T15:06:24;10.30;99.90
14095;DHT22;18096;48.142;16.290;2023-11-21T15:08:53;10.20;99.90
14095;DHT22;18096;48.142;16.290;2023-11-21T15:11:42;10.20;99.90
14095;DHT22;18096;48.142;16.290;2023-11-21T15:14:08;10.20;99.90
14095;DHT22;18096;48.142;16.290;2023-11-21T15:16:38;10.10;99.90
14095;DHT22;18096;48.142;16.290;2023-11-21T15:19:07;10.10;99.90
14095;DHT22;18096;48.142;16.290;2023-11-21T15:21:35;10.10;99.90
14095;DHT22;18096;48.142;16.290;2023-11-21T15:24:01;10.00;99.90
14095;DHT22;18096;48.142;16.290;2023-11-21T15:26:28;9.90;99.90
14095;DHT22;18096;48.142;16.290;2023-11-21T15:28:54;9.90;99.90
14095;DHT22;18096;48.142;16.290;2023-11-21T15:31:19;9.90;99.90
14095;DHT22;18096;48.142;16.290;2023-11-21T15:33:51;9.80;99.90
14095;DHT22;18096;48.142;16.290;2023-11-21T15:36:17;9.80;99.90
14095;DHT22;18096;48.142;16.290;2023-11-21T15:38:43;9.70;99.90
14095;DHT22;18096;48.142;16.290;2023-11-21T15:41:09;9.70;99.90
14095;DHT22;18096;48.142;16.290;2023-11-21T15:43:37;9.70;99.90
14095;DHT22;18096;48.142;16.290;2023-11-21T15:46:02;9.60;99.90
14095;DHT22;18096;48.142;16.290;2023-11-21T15:48:35;9.60;99.90